Aeroporto :
LOGIN :

Iscrizione | Disclaimer

   EN    FR    IT 

 










Sommario :    VFR   VFR Marginale   IFR   IFR Intensivo   IFR Molto Intensivo
Visibilità : 
Base nubi : 
>= 8 km
>= 3000ft
5 / 8 km
1000 / 3000 ft
1500m / 5 km
500 / 1000 ft
800 / 1500m
200 / 500 ft
< 800m
< 200 ft
Simboli :   Temporali  Nebbia  Neve Forte  Precipitazioni Forti  Vento > 20 kt
SIGMETs :   Varie  Temporali  Ghiacco  Turbolenza  Onda orograficha  Ceneri Vulcaniche






- Altitudine del aeroporto : 0 ft


ENLA - Ula Platform

ULTIMO METAR :
  • 210820Z AUTO 07008KT 9999NDV FEW006/// OVC019/// 08/07 Q1012 W///S3

METARs OBSOLETI :
  • 210750Z AUTO 06011KT 9999NDV OVC022/// 08/06 Q1012 W///S3
  • 210720Z AUTO 06012KT 9999NDV FEW023/// BKN065/// 08/06 Q1012 W///S3
  • 210650Z AUTO 06010KT 9999NDV FEW008/// BKN028/// BKN064/// 08/06 Q1012 W///S3
  • 210620Z AUTO 06011KT 9999NDV FEW010/// BKN065/// 07/05 Q1013 W///S3
  • 210550Z AUTO 06013KT 9999NDV FEW009/// 08/06 Q1013 W///S3

TAF N/A



MetMap, La meteo Aeronautica in un colpo d'occhio ! - Copyright ORBIFLY Dicembre 2007 - Disclaimer

ORBIFLY MET'MAP TEAM :

Programmazione e sviluppo : Alexandra Zaïnal
Concezione e sviluppo : Baudouin d'Aumeries
Co-Programmazione e sviluppo : Marc-Olivier Méhu
Supporto tecnico e logistico : Manuel Goepfert
Aiuto per la traduzione : Arnaldo La Scala

Contatto : metmap@orbifly.com




FONTI E CREDITI :

   NOAA